LICB/CIY METAR and TAF weather

Enter ICAO airport designator
Station Type Date Time Source
LICB METAR 2022/06/28 08:50 UTC NOAA

LICB 280850Z AUTO VRB03KT 9999 NCD 36/08 Q1016


Station Type Date Time Source
LICB Decoded METAR 2022/06/28 08:50 UTC NOAA

Comiso As Usaf , Italy (LICB) 36-56N 014-36E
Jun 28, 2022 - 04:50 AM EDT / 2022.06.28 0850 UTC
Wind: Variable at 3 MPH (3 KT):0
Visibility: greater than 7 mile(s):0
Temperature: 96 F (36 C)
Dew Point: 46 F (8 C)
Relative Humidity: 18%
Pressure (altimeter): 30.00 in. Hg (1016 hPa)
ob: LICB 280850Z AUTO VRB03KT 9999 NCD 36/08 Q1016
cycle: 9

Station Type Date Time Source
LICB TAF 2022/06/28 06:00 UTC NOAA

TAF LICB 280500Z 2806/2906 07005KT CAVOK
BECMG 2808/2810 26012KT
BECMG 2817/2819 07005KT

Example: see airport list